Time;durP1;ratioP1;P1;durP2;ratioP2;P2;SDS_P1;SDS_P2;PMS_P1;PMS_P2;Temp;Humidity;BMP_temperature;BMP_pressure;BME280_temperature;BME280_humidity;BME280_pressure;Samples;Min_cycle;Max_cycle;Signal;HPM_P1;HPM_P2
2022/03/11 00:01:07;;;;;;;15.38;10.00;;;25.70;2201.60;;;;;;5071053;28;20391;-62
2022/03/11 00:03:33;;;;;;;18.27;11.18;;;25.60;2201.60;;;;;;5070012;28;20028;-63
2022/03/11 00:05:59;;;;;;;19.67;9.20;;;0.90;2201.60;;;;;;5059443;28;20078;-63
2022/03/11 00:08:25;;;;;;;17.75;9.40;;;0.90;2201.60;;;;;;5059624;28;20406;-64
2022/03/11 00:10:51;;;;;;;19.10;12.52;;;25.60;2201.60;;;;;;5069109;28;20074;-65
2022/03/11 00:13:17;;;;;;;17.50;10.23;;;0.90;2201.60;;;;;;5059434;28;20024;-58
2022/03/11 00:15:42;;;;;;;16.73;8.52;;;0.90;2201.60;;;;;;5059266;28;20037;-61
2022/03/11 00:18:08;;;;;;;22.63;12.95;;;0.90;2201.60;;;;;;5063288;28;20021;-62
2022/03/11 00:20:34;;;;;;;14.85;9.35;;;0.70;2201.60;;;;;;5065973;28;20091;-58
2022/03/11 00:23:00;;;;;;;15.13;8.35;;;0.70;2201.60;;;;;;5068835;28;20024;-56
2022/03/11 00:25:26;;;;;;;15.70;9.52;;;0.90;2201.60;;;;;;5058182;28;20025;-56
2022/03/11 00:27:52;;;;;;;21.58;10.63;;;0.90;2201.60;;;;;;5059859;28;20410;-56
2022/03/11 00:30:18;;;;;;;18.73;9.77;;;25.60;2201.60;;;;;;5065650;28;20375;-57
2022/03/11 00:32:45;;;;;;;17.63;10.65;;;25.70;2201.60;;;;;;5058249;28;20016;-57
2022/03/11 00:35:11;;;;;;;19.60;9.77;;;25.60;2201.60;;;;;;5059626;28;20028;-61
2022/03/11 00:37:38;;;;;;;16.63;8.77;;;25.80;2201.60;;;;;;5057798;28;20370;-57
2022/03/11 00:40:06;;;;;;;14.23;9.00;;;25.70;2201.60;;;;;;5069002;28;20364;-56
2022/03/11 00:42:31;;;;;;;15.63;9.30;;;25.60;2201.60;;;;;;5068581;28;20028;-56
2022/03/11 00:44:57;;;;;;;14.98;9.85;;;25.80;2201.60;;;;;;5068523;28;20031;-57
2022/03/11 00:47:23;;;;;;;14.43;9.10;;;25.60;2201.60;;;;;;5060182;28;20474;-57
2022/03/11 00:49:49;;;;;;;17.02;10.85;;;25.70;2201.60;;;;;;5068477;28;20031;-57
2022/03/11 00:52:14;;;;;;;20.35;11.00;;;25.80;2201.60;;;;;;5065838;28;20016;-62
2022/03/11 00:54:40;;;;;;;20.77;10.07;;;25.80;2201.60;;;;;;5068640;28;20051;-57
2022/03/11 00:57:06;;;;;;;22.50;11.40;;;25.80;2201.60;;;;;;5057782;28;20067;-57
2022/03/11 00:59:31;;;;;;;15.85;10.63;;;25.80;2201.60;;;;;;5059379;28;20040;-58
2022/03/11 01:01:57;;;;;;;16.10;9.45;;;25.70;2201.60;;;;;;5057647;28;20422;-56
2022/03/11 01:04:23;;;;;;;19.20;10.43;;;25.60;2201.60;;;;;;5058350;28;20048;-59
2022/03/11 01:06:48;;;;;;;18.08;11.15;;;25.70;2201.60;;;;;;5059092;28;20032;-56
2022/03/11 01:09:14;;;;;;;20.35;11.02;;;25.60;2201.60;;;;;;5068457;28;20011;-58
2022/03/11 01:11:40;;;;;;;16.95;10.20;;;25.70;2201.60;;;;;;5058883;28;20066;-56
2022/03/11 01:14:06;;;;;;;17.60;10.43;;;25.70;2201.60;;;;;;5057311;28;20533;-61
2022/03/11 01:16:32;;;;;;;18.00;10.55;;;25.80;2201.60;;;;;;5068333;28;20025;-56
2022/03/11 01:18:57;;;;;;;17.13;9.98;;;25.60;2201.60;;;;;;5068072;28;20028;-56
2022/03/11 01:21:23;;;;;;;15.05;9.57;;;25.70;2201.60;;;;;;5068050;28;20013;-57
2022/03/11 01:23:49;;;;;;;16.27;9.95;;;25.70;2201.60;;;;;;5068595;28;20478;-57
2022/03/11 01:26:16;;;;;;;18.90;9.75;;;25.80;2201.60;;;;;;5062273;28;20463;-57
2022/03/11 01:28:43;;;;;;;16.50;9.40;;;0.90;2201.60;;;;;;5068634;28;20474;-58
2022/03/11 01:31:11;;;;;;;15.55;9.00;;;25.60;2201.60;;;;;;5069329;28;20053;-57
2022/03/11 01:33:38;;;;;;;25.65;12.18;;;25.70;2201.60;;;;;;5069085;28;20054;-62
2022/03/11 01:36:04;;;;;;;15.77;9.18;;;25.60;2201.60;;;;;;5069317;28;20029;-63
2022/03/11 01:38:30;;;;;;;16.92;10.50;;;25.70;2201.60;;;;;;5069526;28;20028;-62
2022/03/11 01:40:55;;;;;;;17.55;10.15;;;25.70;2201.60;;;;;;5071728;28;20025;-56
2022/03/11 01:43:21;;;;;;;16.55;8.02;;;25.70;2201.60;;;;;;5073492;28;20386;-61
2022/03/11 01:45:47;;;;;;;13.60;9.50;;;25.70;2201.60;;;;;;5072919;28;20374;-63
2022/03/11 01:48:13;;;;;;;15.65;9.73;;;25.70;2201.60;;;;;;5073132;28;20086;-58
2022/03/11 01:50:40;;;;;;;14.85;11.60;;;25.70;2201.60;;;;;;5072840;28;20120;-57
2022/03/11 01:53:11;;;;;;;15.02;9.82;;;25.60;2201.60;;;;;;5072701;28;20032;-57
2022/03/11 01:55:38;;;;;;;19.63;9.88;;;25.70;2201.60;;;;;;5072912;28;20037;-63
2022/03/11 01:58:05;;;;;;;14.32;8.30;;;0.90;2201.60;;;;;;5073036;28;20029;-61
2022/03/11 02:00:38;;;;;;;14.05;9.32;;;0.90;2201.60;;;;;;5072824;28;20393;-57
2022/03/11 02:03:05;;;;;;;17.25;9.98;;;0.90;2201.60;;;;;;5072839;28;20056;-57
2022/03/11 02:05:31;;;;;;;14.48;8.35;;;0.80;2201.60;;;;;;5072665;28;20033;-56
2022/03/11 02:07:58;;;;;;;14.23;8.32;;;0.80;2201.60;;;;;;5072536;28;20020;-57
2022/03/11 02:10:30;;;;;;;17.15;10.90;;;0.80;2201.60;;;;;;5072666;28;20035;-56
2022/03/11 02:12:57;;;;;;;15.05;8.32;;;0.70;2201.60;;;;;;5072376;28;20029;-56
2022/03/11 02:15:24;;;;;;;16.67;8.93;;;25.70;2201.60;;;;;;5072458;28;20083;-63
2022/03/11 02:17:50;;;;;;;15.57;9.40;;;25.60;2201.60;;;;;;5072633;28;20024;-57
2022/03/11 02:20:16;;;;;;;14.65;9.13;;;25.60;2201.60;;;;;;5072312;28;20028;-56
2022/03/11 02:22:45;;;;;;;17.73;10.23;;;0.90;2201.60;;;;;;5072464;28;20043;-60
2022/03/11 02:25:11;;;;;;;15.95;9.93;;;0.70;2201.60;;;;;;5072589;28;20033;-63
2022/03/11 02:27:42;;;;;;;16.42;10.40;;;0.80;2201.60;;;;;;5072127;28;20111;-57
2022/03/11 02:30:13;;;;;;;16.80;11.25;;;0.80;2201.60;;;;;;5072023;28;20375;-57
2022/03/11 02:32:39;;;;;;;19.40;10.35;;;0.80;2201.60;;;;;;5072050;28;20052;-57
2022/03/11 02:35:07;;;;;;;18.70;10.50;;;0.80;2201.60;;;;;;5071903;28;20390;-57
2022/03/11 02:37:32;;;;;;;22.88;10.20;;;0.90;2201.60;;;;;;5072380;28;20033;-57
2022/03/11 02:39:58;;;;;;;17.40;10.50;;;25.70;2201.60;;;;;;5071930;28;20035;-57
2022/03/11 02:42:24;;;;;;;19.35;10.45;;;25.70;2201.60;;;;;;5072076;28;20024;-62
2022/03/11 02:44:50;;;;;;;18.85;12.00;;;25.60;2201.60;;;;;;5072118;28;20126;-62
2022/03/11 02:47:16;;;;;;;20.08;10.98;;;25.60;2201.60;;;;;;5071774;28;20078;-57
2022/03/11 02:49:41;;;;;;;20.25;10.73;;;0.90;2201.60;;;;;;5071760;28;20037;-57
2022/03/11 02:52:07;;;;;;;17.27;10.75;;;0.90;2201.60;;;;;;5071011;28;20025;-57
2022/03/11 02:54:34;;;;;;;17.85;10.57;;;0.70;2201.60;;;;;;5071878;28;20039;-57
2022/03/11 02:56:59;;;;;;;19.88;10.55;;;0.90;2201.60;;;;;;5071758;28;20029;-57
2022/03/11 02:59:25;;;;;;;18.05;10.10;;;0.80;2201.60;;;;;;5071507;28;20371;-57
2022/03/11 03:01:52;;;;;;;21.17;10.45;;;0.70;2201.60;;;;;;5071983;28;20033;-61
2022/03/11 03:04:18;;;;;;;20.60;12.30;;;0.70;2201.60;;;;;;5071385;28;20482;-60
2022/03/11 03:06:44;;;;;;;15.80;9.20;;;0.50;2201.60;;;;;;5071646;28;20025;-62
2022/03/11 03:09:10;;;;;;;21.65;12.57;;;0.50;2201.60;;;;;;5071360;28;20020;-62
2022/03/11 03:11:35;;;;;;;23.58;11.48;;;0.50;2201.60;;;;;;5071365;28;20489;-57
2022/03/11 03:14:02;;;;;;;17.58;10.93;;;0.40;2201.60;;;;;;5071400;28;20115;-62
2022/03/11 03:16:27;;;;;;;21.58;10.35;;;0.30;2201.60;;;;;;5071225;28;20031;-57
2022/03/11 03:18:53;;;;;;;17.08;10.20;;;0.30;2201.60;;;;;;5071327;28;20029;-57
2022/03/11 03:21:19;;;;;;;30.77;14.95;;;0.40;2201.60;;;;;;5071343;28;20021;-57
2022/03/11 03:23:45;;;;;;;22.23;10.55;;;0.40;2201.60;;;;;;5071285;28;20032;-62
2022/03/11 03:26:11;;;;;;;16.30;9.88;;;0.40;2201.60;;;;;;5071280;28;20108;-63
2022/03/11 03:28:37;;;;;;;19.58;9.85;;;0.40;2201.60;;;;;;5071017;28;20390;-57
2022/03/11 03:31:03;;;;;;;15.05;9.48;;;0.40;2201.60;;;;;;5071053;28;20063;-57
2022/03/11 03:33:28;;;;;;;22.17;12.25;;;0.40;2201.60;;;;;;5070928;28;20100;-57
2022/03/11 03:35:54;;;;;;;29.95;13.85;;;0.40;2201.60;;;;;;5070990;28;20032;-57
2022/03/11 03:38:20;;;;;;;14.20;9.52;;;0.10;2201.60;;;;;;5071072;28;20059;-61
2022/03/11 03:40:45;;;;;;;18.77;10.55;;;0.20;2201.60;;;;;;5070724;28;20031;-58
2022/03/11 03:43:11;;;;;;;15.88;9.60;;;0.20;2201.60;;;;;;5070951;28;20027;-57
2022/03/11 03:45:37;;;;;;;14.80;9.23;;;0.30;2201.60;;;;;;5070678;28;20501;-57
2022/03/11 03:48:03;;;;;;;17.30;10.40;;;0.20;2201.60;;;;;;5070779;28;20077;-56
2022/03/11 03:50:29;;;;;;;20.77;10.70;;;0.20;2201.60;;;;;;5070578;28;20086;-63
2022/03/11 03:52:55;;;;;;;17.45;9.73;;;0.30;2201.60;;;;;;5070676;28;20024;-57
2022/03/11 03:55:21;;;;;;;16.73;10.43;;;0.20;2201.60;;;;;;5070941;28;20043;-63
2022/03/11 03:57:46;;;;;;;17.30;9.27;;;0.00;2201.60;;;;;;5070526;28;20374;-57
2022/03/11 04:00:13;;;;;;;16.45;10.60;;;13.00;2201.60;;;;;;5070538;28;20041;-57
2022/03/11 04:02:49;;;;;;;16.80;9.90;;;12.90;2201.60;;;;;;5070419;28;20029;-61
2022/03/11 04:05:16;;;;;;;21.75;10.98;;;13.00;2201.60;;;;;;5070561;28;20056;-57
2022/03/11 04:07:43;;;;;;;18.95;10.88;;;12.90;2201.60;;;;;;5070547;28;20103;-62
2022/03/11 04:10:10;;;;;;;33.30;16.50;;;12.90;2201.60;;;;;;5070414;28;20024;-57
2022/03/11 04:12:36;;;;;;;26.38;13.82;;;12.90;2201.60;;;;;;5070402;28;20070;-57
2022/03/11 04:15:02;;;;;;;108.70;48.90;;;12.90;2201.60;;;;;;5070365;28;20051;-61
2022/03/11 04:17:28;;;;;;;29.40;18.55;;;12.90;2201.60;;;;;;5070078;28;20027;-57
2022/03/11 04:19:53;;;;;;;127.55;60.90;;;12.90;2201.60;;;;;;5070268;28;20036;-57
2022/03/11 04:22:19;;;;;;;21.88;15.57;;;12.90;2201.60;;;;;;5070242;28;20102;-57
2022/03/11 04:24:46;;;;;;;22.00;13.75;;;13.00;2201.60;;;;;;5070207;28;20123;-57
2022/03/11 04:27:12;;;;;;;17.95;10.70;;;13.10;2201.60;;;;;;5070210;28;20032;-57
2022/03/11 04:29:38;;;;;;;18.75;10.52;;;13.30;2201.60;;;;;;5069744;28;20090;-57
2022/03/11 04:32:05;;;;;;;17.27;11.60;;;13.20;2201.60;;;;;;5070161;28;20036;-61
2022/03/11 04:34:31;;;;;;;18.65;12.05;;;13.20;2201.60;;;;;;5069896;28;20036;-58
2022/03/11 04:36:57;;;;;;;14.02;9.70;;;13.30;2201.60;;;;;;5069976;28;20031;-57
2022/03/11 04:39:26;;;;;;;19.17;10.05;;;13.40;2201.60;;;;;;5070054;28;20033;-58
2022/03/11 04:41:55;;;;;;;22.50;13.57;;;13.20;2201.60;;;;;;5070155;28;20025;-57
2022/03/11 04:44:21;;;;;;;20.58;15.85;;;13.10;2201.60;;;;;;5070239;28;20027;-62
2022/03/11 04:46:47;;;;;;;17.20;10.48;;;13.10;2201.60;;;;;;5069721;28;20028;-57
2022/03/11 04:49:13;;;;;;;16.75;10.38;;;13.00;2201.60;;;;;;5070019;28;20056;-56
2022/03/11 04:51:39;;;;;;;15.02;8.65;;;13.10;2201.60;;;;;;5069890;28;20474;-63
2022/03/11 04:54:06;;;;;;;21.38;10.93;;;13.00;2201.60;;;;;;5069631;28;20031;-57
2022/03/11 04:56:32;;;;;;;16.25;10.73;;;13.00;2201.60;;;;;;5069891;28;20035;-62
2022/03/11 04:58:59;;;;;;;19.42;11.60;;;12.90;2201.60;;;;;;5069662;28;20020;-62
2022/03/11 05:01:24;;;;;;;19.17;9.38;;;12.90;2201.60;;;;;;5069846;28;20108;-57
2022/03/11 05:03:50;;;;;;;20.02;11.15;;;13.00;2201.60;;;;;;5070042;28;20132;-61
2022/03/11 05:06:16;;;;;;;14.93;10.60;;;13.10;2201.60;;;;;;5069583;28;20428;-62
2022/03/11 05:08:42;;;;;;;16.55;12.30;;;13.20;2201.60;;;;;;5069806;28;20082;-57
2022/03/11 05:11:08;;;;;;;47.55;34.47;;;13.00;2201.60;;;;;;5069689;28;20455;-56
2022/03/11 05:13:34;;;;;;;20.95;13.35;;;12.90;2201.60;;;;;;5069797;28;20075;-58
2022/03/11 05:16:00;;;;;;;27.30;11.38;;;0.00;2201.60;;;;;;5072223;28;20036;-59
2022/03/11 05:18:26;;;;;;;20.50;11.80;;;12.90;2201.60;;;;;;5073446;28;20025;-57
2022/03/11 05:20:53;;;;;;;20.35;11.73;;;12.90;2201.60;;;;;;5073775;28;20466;-58
2022/03/11 05:23:18;;;;;;;20.13;11.75;;;0.10;2201.60;;;;;;5073347;28;20028;-57
2022/03/11 05:25:44;;;;;;;16.25;8.13;;;0.10;2201.60;;;;;;5073448;28;20542;-59
2022/03/11 05:28:10;;;;;;;15.63;8.38;;;0.10;2201.60;;;;;;5073590;28;20036;-58
2022/03/11 05:30:36;;;;;;;18.42;12.40;;;0.10;2201.60;;;;;;5072887;28;20071;-57
2022/03/11 05:33:03;;;;;;;17.33;9.98;;;0.30;2201.60;;;;;;5073343;28;20040;-57
2022/03/11 05:35:29;;;;;;;19.88;9.65;;;0.40;2201.60;;;;;;5073856;28;20036;-58
2022/03/11 05:37:55;;;;;;;20.38;12.63;;;0.50;2201.60;;;;;;5075511;28;20031;-58
2022/03/11 05:40:21;;;;;;;16.48;11.23;;;0.50;2201.60;;;;;;5076107;28;20028;-58
2022/03/11 05:42:47;;;;;;;16.63;9.25;;;0.70;2201.60;;;;;;5075032;28;20021;-59
2022/03/11 05:45:12;;;;;;;21.08;14.20;;;0.40;2201.60;;;;;;5076234;28;20039;-57
2022/03/11 05:47:39;;;;;;;17.65;10.68;;;0.50;2201.60;;;;;;5075961;28;20021;-65
2022/03/11 05:50:05;;;;;;;22.77;12.48;;;0.50;2201.60;;;;;;5075300;28;20031;-58
2022/03/11 05:52:34;;;;;;;18.35;11.48;;;0.80;2201.60;;;;;;5075189;28;20425;-57
2022/03/11 05:54:59;;;;;;;21.15;12.23;;;25.70;2201.60;;;;;;5075002;28;20115;-59
2022/03/11 05:57:25;;;;;;;20.98;11.10;;;25.80;2201.60;;;;;;5075037;28;20052;-58
2022/03/11 05:59:51;;;;;;;18.08;11.18;;;25.60;2201.60;;;;;;5074812;28;20037;-62
2022/03/11 06:02:17;;;;;;;19.55;12.50;;;25.90;2201.60;;;;;;5074525;28;20115;-66
2022/03/11 06:04:42;;;;;;;27.48;14.95;;;26.00;2201.60;;;;;;5073561;28;20033;-57
2022/03/11 06:07:09;;;;;;;17.48;10.30;;;26.20;2150.40;;;;;;5072559;28;20063;-57
2022/03/11 06:09:34;;;;;;;18.58;10.45;;;26.30;2150.40;;;;;;5072952;28;20104;-56
2022/03/11 06:12:00;;;;;;;17.05;10.85;;;26.50;2150.40;;;;;;5072784;28;20100;-56
2022/03/11 06:14:26;;;;;;;19.42;10.45;;;51.30;2124.80;;;;;;5072682;28;20044;-61
2022/03/11 06:16:52;;;;;;;17.90;9.77;;;51.40;2099.20;;;;;;5073622;28;20036;-62
2022/03/11 06:19:20;;;;;;;19.73;11.43;;;51.50;2073.60;;;;;;5072572;28;20394;-60
2022/03/11 06:21:47;;;;;;;18.48;10.30;;;51.80;2099.20;;;;;;5072433;28;20051;-64
2022/03/11 06:24:13;;;;;;;20.98;11.98;;;51.90;2048.00;;;;;;5072584;28;20463;-57
2022/03/11 06:26:40;;;;;;;20.42;9.63;;;51.80;2022.40;;;;;;5071118;28;20025;-57
2022/03/11 06:29:06;;;;;;;16.95;10.75;;;76.90;2022.40;;;;;;5072220;28;20059;-58
2022/03/11 06:31:32;;;;;;;23.50;14.77;;;103.30;1843.20;;;;;;5072569;28;20052;-57
2022/03/11 06:33:59;;;;;;;25.80;19.02;;;154.30;1715.20;;;;;;5071793;28;20535;-57
2022/03/11 06:36:25;;;;;;;18.27;11.82;;;205.10;1561.60;;;;;;5071856;28;20025;-57
2022/03/11 06:38:51;;;;;;;17.48;11.70;;;230.50;1459.20;;;;;;5072645;28;20082;-58
2022/03/11 06:41:17;;;;;;;134.05;70.00;;;256.10;1382.40;;;;;;5071997;28;20025;-56
2022/03/11 06:43:43;;;;;;;286.30;165.48;;;282.20;1305.60;;;;;;5072281;28;20487;-61
2022/03/11 06:46:09;;;;;;;111.47;60.08;;;307.40;1254.40;;;;;;5072351;28;20371;-59
2022/03/11 06:48:35;;;;;;;22.58;13.68;;;308.10;1228.80;;;;;;5071350;28;20516;-58
2022/03/11 06:51:04;;;;;;;15.85;12.15;;;332.80;1228.80;;;;;;5071782;28;20025;-57
2022/03/11 06:53:31;;;;;;;37.30;27.25;;;333.60;1203.20;;;;;;5070614;28;20032;-56
2022/03/11 06:55:57;;;;;;;36.53;26.15;;;358.70;1152.00;;;;;;5071415;28;20043;-57
2022/03/11 06:58:23;;;;;;;22.95;15.13;;;358.80;1126.40;;;;;;5071956;28;20020;-58
2022/03/11 07:00:48;;;;;;;24.60;19.00;;;358.60;1126.40;;;;;;5070752;28;20036;-57
2022/03/11 07:03:14;;;;;;;16.13;12.63;;;333.40;1177.60;;;;;;5070082;28;20512;-58
2022/03/11 07:05:40;;;;;;;16.50;14.75;;;;;;;;;;5071151;28;20073;-57
2022/03/11 07:08:08;;;;;;;16.77;11.82;;;;;;;;;;5070514;28;20497;-60
2022/03/11 07:10:35;;;;;;;18.00;14.23;;;;;;;;;;5070710;28;20047;-59
2022/03/11 07:13:01;;;;;;;19.00;16.80;;;;;;;;;;5071128;28;20120;-57
2022/03/11 07:15:27;;;;;;;23.33;16.00;;;;;;;;;;5072028;28;20095;-58
2022/03/11 07:17:53;;;;;;;45.67;38.20;;;;;;;;;;5072511;28;20490;-57
2022/03/11 07:20:19;;;;;;;22.92;16.42;;;;;;;;;;5071280;28;20111;-58
2022/03/11 07:22:47;;;;;;;17.58;14.60;;;409.90;1049.60;;;;;;5071188;28;20098;-57
2022/03/11 07:25:15;;;;;;;19.02;15.13;;;384.80;1049.60;;;;;;5071646;28;20040;-58
2022/03/11 07:27:40;;;;;;;16.98;14.65;;;384.90;1049.60;;;;;;5071250;28;20017;-57
2022/03/11 07:30:09;;;;;;;14.10;12.63;;;410.10;1049.60;;;;;;5070686;28;20521;-58
2022/03/11 07:32:35;;;;;;;16.60;14.90;;;435.40;998.40;;;;;;5070919;28;20035;-58
2022/03/11 07:35:01;;;;;;;29.65;24.33;;;435.90;972.80;;;;;;5070913;28;20037;-57
2022/03/11 07:37:27;;;;;;;20.35;16.70;;;461.30;972.80;;;;;;5070482;28;20066;-58
2022/03/11 07:39:52;;;;;;;20.58;16.45;;;460.90;972.80;;;;;;5071059;28;20474;-57
2022/03/11 07:42:18;;;;;;;24.83;21.70;;;461.60;947.20;;;;;;5070747;28;20036;-56
2022/03/11 07:44:44;;;;;;;33.38;27.23;;;486.80;921.60;;;;;;5070953;28;20024;-57
2022/03/11 07:47:10;;;;;;;24.05;20.02;;;487.20;921.60;;;;;;5070910;28;20028;-58
2022/03/11 07:49:35;;;;;;;20.92;18.20;;;487.30;896.00;;;;;;5070490;28;20028;-58
2022/03/11 07:52:02;;;;;;;26.40;23.75;;;512.80;870.40;;;;;;5070565;28;20056;-58
2022/03/11 07:54:28;;;;;;;21.67;18.55;;;538.00;896.00;;;;;;5070567;28;20105;-57
2022/03/11 07:56:54;;;;;;;20.40;16.65;;;512.90;844.80;;;;;;5069228;28;20380;-57
2022/03/11 07:59:20;;;;;;;20.50;17.98;;;537.60;870.40;;;;;;5070606;28;20086;-57
2022/03/11 08:01:46;;;;;;;21.17;18.52;;;512.40;870.40;;;;;;5070246;28;20122;-57
2022/03/11 08:04:13;;;;;;;30.95;23.48;;;512.60;844.80;;;;;;5070485;28;20090;-58
2022/03/11 08:06:40;;;;;;;35.20;30.80;;;512.20;870.40;;;;;;5070252;28;20455;-56
2022/03/11 08:09:05;;;;;;;24.60;18.42;;;512.60;844.80;;;;;;5070315;28;20032;-57
2022/03/11 08:11:31;;;;;;;18.45;16.52;;;486.90;896.00;;;;;;5070474;28;20171;-57
2022/03/11 08:13:57;;;;;;;18.65;16.70;;;487.00;870.40;;;;;;5070076;28;20026;-56
2022/03/11 08:16:22;;;;;;;19.77;17.48;;;487.30;870.40;;;;;;5070323;28;20039;-56
2022/03/11 08:18:48;;;;;;;19.35;16.63;;;487.10;870.40;;;;;;5070193;28;20016;-56
2022/03/11 08:21:16;;;;;;;14.30;12.63;;;512.30;870.40;;;;;;5070289;28;20075;-57
2022/03/11 08:23:43;;;;;;;18.20;15.13;;;487.10;844.80;;;;;;5070196;28;20025;-57
2022/03/11 08:26:10;;;;;;;18.30;16.48;;;512.50;844.80;;;;;;5070087;28;20027;-57
2022/03/11 08:28:37;;;;;;;21.48;18.38;;;538.00;870.40;;;;;;5069642;28;20024;-57
2022/03/11 08:31:03;;;;;;;17.48;14.68;;;537.90;844.80;;;;;;5069901;28;20060;-57
2022/03/11 08:33:30;;;;;;;25.67;20.55;;;537.80;819.20;;;;;;5069742;28;20059;-57
2022/03/11 08:35:57;;;;;;;20.70;18.13;;;512.60;844.80;;;;;;5069840;28;20112;-58
2022/03/11 08:38:22;;;;;;;21.05;18.45;;;512.20;844.80;;;;;;5070129;28;20537;-56
2022/03/11 08:40:48;;;;;;;21.63;19.42;;;512.60;844.80;;;;;;5070122;28;20120;-56
2022/03/11 08:43:14;;;;;;;19.73;17.63;;;512.60;819.20;;;;;;5069897;28;20154;-56
2022/03/11 08:45:40;;;;;;;22.95;19.17;;;512.20;844.80;;;;;;5069914;28;20390;-58
2022/03/11 08:48:06;;;;;;;29.13;25.95;;;512.30;870.40;;;;;;5069641;28;20055;-59
2022/03/11 08:50:33;;;;;;;40.15;29.20;;;512.90;844.80;;;;;;5069139;28;20032;-56
2022/03/11 08:52:59;;;;;;;19.92;16.67;;;537.70;844.80;;;;;;5069547;28;20024;-57
2022/03/11 08:55:25;;;;;;;16.08;14.38;;;512.00;844.80;;;;;;5069514;28;20024;-57
2022/03/11 08:57:52;;;;;;;19.50;15.68;;;487.20;844.80;;;;;;5069810;28;20024;-57
2022/03/11 09:00:19;;;;;;;16.33;13.93;;;512.40;844.80;;;;;;5069553;28;20042;-58
2022/03/11 09:02:46;;;;;;;18.73;16.75;;;512.40;844.80;;;;;;5069574;28;20021;-57
2022/03/11 09:05:18;;;;;;;26.27;22.63;;;512.60;844.80;;;;;;5069624;28;20044;-59
2022/03/11 09:07:45;;;;;;;17.63;14.95;;;512.30;870.40;;;;;;5069611;28;20470;-58
2022/03/11 09:10:12;;;;;;;21.25;18.27;;;487.10;870.40;;;;;;5069830;28;20078;-58
2022/03/11 09:12:39;;;;;;;20.35;15.63;;;486.70;896.00;;;;;;5069446;28;20417;-59
2022/03/11 09:15:07;;;;;;;16.27;14.68;;;460.80;947.20;;;;;;5069405;28;20380;-59
2022/03/11 09:17:33;;;;;;;16.75;13.80;;;410.20;998.40;;;;;;5068690;28;20036;-56
2022/03/11 09:20:03;;;;;;;19.83;17.20;;;384.50;998.40;;;;;;5070809;28;20044;-57
2022/03/11 09:22:29;;;;;;;20.63;17.85;;;358.70;1049.60;;;;;;5069291;28;20460;-56
2022/03/11 09:24:55;;;;;;;16.23;14.07;;;308.10;1152.00;;;;;;5068657;28;20024;-56
2022/03/11 09:27:23;;;;;;;17.58;12.93;;;282.40;1177.60;;;;;;5068407;28;20047;-57
2022/03/11 09:29:49;;;;;;;18.60;15.23;;;281.60;1228.80;;;;;;5065224;28;20036;-58
2022/03/11 09:32:15;;;;;;;17.48;12.48;;;256.60;1228.80;;;;;;5067983;28;20479;-56
2022/03/11 09:34:43;;;;;;;19.65;15.10;;;256.00;1228.80;;;;;;5067992;28;20033;-58
2022/03/11 09:37:10;;;;;;;14.60;10.90;;;230.40;1280.00;;;;;;5065517;28;20017;-59
2022/03/11 09:39:36;;;;;;;15.07;10.73;;;205.50;1331.20;;;;;;5069121;28;20017;-56
2022/03/11 09:42:06;;;;;;;13.60;10.77;;;205.50;1356.80;;;;;;5068941;28;20031;-55
2022/03/11 09:44:32;;;;;;;16.25;10.35;;;205.30;1382.40;;;;;;5068206;28;20020;-56
2022/03/11 09:46:59;;;;;;;99.32;51.88;;;205.10;1356.80;;;;;;5065259;28;20021;-56
2022/03/11 09:49:25;;;;;;;122.47;65.20;;;205.00;1382.40;;;;;;5068231;28;20020;-57
2022/03/11 09:51:51;;;;;;;102.30;61.53;;;205.10;1382.40;;;;;;5068689;28;20116;-58
2022/03/11 09:54:17;;;;;;;41.15;28.15;;;204.90;1382.40;;;;;;5068097;28;20449;-60
2022/03/11 09:56:44;;;;;;;57.55;41.22;;;205.00;1408.00;;;;;;5071679;28;20105;-61
2022/03/11 09:59:11;;;;;;;20.13;14.60;;;204.90;1408.00;;;;;;5068101;28;20056;-57
2022/03/11 10:01:40;;;;;;;17.10;10.90;;;204.90;1408.00;;;;;;5069561;28;20017;-58
2022/03/11 10:04:07;;;;;;;15.93;11.90;;;180.00;1408.00;;;;;;5069530;28;20009;-60
2022/03/11 10:06:40;;;;;;;15.07;9.55;;;180.00;1433.60;;;;;;5071723;28;20025;-60
2022/03/11 10:09:30;;;;;;;12.10;9.43;;;180.10;1433.60;;;;;;5069072;28;20020;-63
2022/03/11 10:11:57;;;;;;;14.85;10.25;;;179.60;1484.80;;;;;;5070117;28;20032;-58
2022/03/11 10:14:35;;;;;;;51.67;33.65;;;179.70;1459.20;;;;;;5071851;28;20066;-58
2022/03/11 10:17:03;;;;;;;15.93;11.52;;;180.10;1433.60;;;;;;5071220;28;20112;-57
2022/03/11 10:19:29;;;;;;;54.03;37.08;;;179.80;1459.20;;;;;;5071389;28;20445;-65
2022/03/11 10:21:59;;;;;;;23.55;15.13;;;179.90;1459.20;;;;;;5071584;28;20021;-57
2022/03/11 10:24:27;;;;;;;13.90;9.45;;;179.60;1459.20;;;;;;5071702;28;20104;-58
2022/03/11 10:26:55;;;;;;;14.98;10.27;;;179.60;1459.20;;;;;;5072026;28;20063;-59
2022/03/11 10:29:24;;;;;;;21.02;13.15;;;179.70;1433.60;;;;;;5073221;28;20135;-62
2022/03/11 10:31:53;;;;;;;16.65;11.63;;;179.60;1459.20;;;;;;5074059;28;20494;-56
2022/03/11 10:34:34;;;;;;;77.50;50.17;;;179.70;1459.20;;;;;;5073323;28;20040;-56
2022/03/11 10:37:01;;;;;;;14.18;8.95;;;179.50;1459.20;;;;;;5069748;28;20027;-56
2022/03/11 10:39:53;;;;;;;13.10;9.70;;;179.40;1484.80;;;;;;5070688;28;20013;-59
2022/03/11 10:42:24;;;;;;;14.25;9.63;;;179.50;1459.20;;;;;;5068614;28;20051;-58
2022/03/11 10:44:59;;;;;;;15.85;11.48;;;179.50;1433.60;;;;;;5071646;28;20055;-56
2022/03/11 10:47:30;;;;;;;14.00;11.23;;;179.70;1484.80;;;;;;5071302;28;20078;-57
2022/03/11 10:49:58;;;;;;;11.57;7.85;;;180.10;1459.20;;;;;;5069393;28;20050;-57
2022/03/11 10:52:33;;;;;;;21.15;13.45;;;204.90;1433.60;;;;;;5071837;28;20062;-56
2022/03/11 10:55:00;;;;;;;22.30;15.63;;;204.80;1408.00;;;;;;5069386;28;20537;-56
2022/03/11 10:57:39;;;;;;;17.00;13.43;;;179.20;1433.60;;;;;;5071958;28;20025;-57
2022/03/11 11:00:24;;;;;;;14.10;10.27;;;179.80;1382.40;;;;;;5071251;28;20028;-56
2022/03/11 11:02:58;;;;;;;15.13;8.13;;;179.60;1382.40;;;;;;5070575;28;20096;-56
2022/03/11 11:05:26;;;;;;;15.15;8.93;;;179.70;1408.00;;;;;;5069602;28;20094;-56
2022/03/11 11:07:52;;;;;;;16.13;10.82;;;179.90;1382.40;;;;;;5071296;28;20081;-56
2022/03/11 11:10:20;;;;;;;13.13;8.88;;;204.90;1356.80;;;;;;5071081;28;20024;-56
2022/03/11 11:12:47;;;;;;;22.63;12.23;;;179.90;1356.80;;;;;;5070818;28;20078;-56
2022/03/11 11:15:17;;;;;;;12.02;8.82;;;179.70;1356.80;;;;;;5070799;28;20127;-56
2022/03/11 11:17:45;;;;;;;16.70;9.38;;;179.60;1408.00;;;;;;5070893;28;20504;-61
2022/03/11 11:20:33;;;;;;;14.15;10.52;;;179.30;1382.40;;;;;;5071255;28;20028;-56
2022/03/11 11:23:03;;;;;;;13.77;9.00;;;179.40;1331.20;;;;;;5071253;28;20415;-56
2022/03/11 11:25:29;;;;;;;19.20;11.55;;;179.60;1331.20;;;;;;5070816;28;20024;-57
2022/03/11 11:28:00;;;;;;;13.18;9.30;;;179.90;1305.60;;;;;;5070510;28;20032;-57
2022/03/11 11:30:26;;;;;;;14.05;9.23;;;179.80;1382.40;;;;;;5050579;28;20053;-57
2022/03/11 11:32:54;;;;;;;10.52;7.30;;;179.80;1382.40;;;;;;5051330;28;20028;-56
2022/03/11 11:35:27;;;;;;;18.13;9.57;;;180.10;1356.80;;;;;;5051212;28;20037;-56
2022/03/11 11:37:54;;;;;;;13.02;7.15;;;204.80;1305.60;;;;;;5051290;28;20375;-56
2022/03/11 11:40:28;;;;;;;14.20;7.53;;;205.40;1280.00;;;;;;5049310;28;20060;-58
2022/03/11 11:43:28;;;;;;;11.18;8.23;;;205.40;1331.20;;;;;;5049274;28;20033;-56
2022/03/11 11:46:11;;;;;;;11.18;8.35;;;205.50;1331.20;;;;;;5049450;28;20151;-57
2022/03/11 11:48:43;;;;;;;13.68;9.23;;;205.60;1331.20;;;;;;5049476;28;20029;-57
2022/03/11 11:51:10;;;;;;;10.52;7.28;;;205.50;1280.00;;;;;;5049168;28;20033;-56
2022/03/11 11:53:49;;;;;;;11.20;7.43;;;205.40;1331.20;;;;;;5048615;28;20020;-56
2022/03/11 11:56:31;;;;;;;9.10;6.13;;;205.60;1331.20;;;;;;5048945;28;20033;-56
2022/03/11 11:59:08;;;;;;;10.45;7.55;;;230.60;1305.60;;;;;;5048843;28;20063;-57
2022/03/11 12:01:43;;;;;;;11.90;8.25;;;230.90;1305.60;;;;;;5049178;28;20044;-57
2022/03/11 12:04:37;;;;;;;14.65;8.43;;;230.60;1254.40;;;;;;5048602;28;20079;-56
2022/03/11 12:07:04;;;;;;;;;;;230.40;1305.60;;;;;;5048883;28;20020;-58
2022/03/11 12:09:50;;;;;;;12.65;8.45;;;205.50;1331.20;;;;;;5048990;28;19962;-56
2022/03/11 12:12:19;;;;;;;24.33;14.75;;;205.30;1305.60;;;;;;5048697;28;20476;-57
2022/03/11 12:14:57;;;;;;;20.48;13.45;;;204.80;1382.40;;;;;;5048817;28;20526;-58